sensor_id;sensor_type;location;lat;lon;timestamp;P1;durP1;ratioP1;P2;durP2;ratioP2
47429;SDS011;33181;49.246;7.372;2022-12-18T00:02:04;36.03;;;18.83;;
47429;SDS011;33181;49.246;7.372;2022-12-18T00:04:30;36.93;;;18.33;;
47429;SDS011;33181;49.246;7.372;2022-12-18T00:06:56;31.73;;;17.03;;
47429;SDS011;33181;49.246;7.372;2022-12-18T00:09:22;34.87;;;18.23;;
47429;SDS011;33181;49.246;7.372;2022-12-18T00:11:48;36.80;;;18.67;;
47429;SDS011;33181;49.246;7.372;2022-12-18T00:14:14;36.90;;;18.60;;
47429;SDS011;33181;49.246;7.372;2022-12-18T00:16:42;33.67;;;18.07;;
47429;SDS011;33181;49.246;7.372;2022-12-18T00:19:10;34.20;;;18.60;;
47429;SDS011;33181;49.246;7.372;2022-12-18T00:21:37;34.23;;;18.50;;
47429;SDS011;33181;49.246;7.372;2022-12-18T00:24:03;36.30;;;17.37;;
47429;SDS011;33181;49.246;7.372;2022-12-18T00:26:29;49.27;;;18.87;;
47429;SDS011;33181;49.246;7.372;2022-12-18T00:28:59;34.33;;;19.20;;
47429;SDS011;33181;49.246;7.372;2022-12-18T00:31:27;38.97;;;17.83;;
47429;SDS011;33181;49.246;7.372;2022-12-18T00:33:56;33.77;;;16.80;;
47429;SDS011;33181;49.246;7.372;2022-12-18T00:36:24;38.97;;;18.73;;
47429;SDS011;33181;49.246;7.372;2022-12-18T00:38:58;35.33;;;17.37;;
47429;SDS011;33181;49.246;7.372;2022-12-18T00:41:26;36.60;;;17.97;;
47429;SDS011;33181;49.246;7.372;2022-12-18T00:44:13;43.63;;;19.60;;
47429;SDS011;33181;49.246;7.372;2022-12-18T00:46:41;38.17;;;18.60;;
47429;SDS011;33181;49.246;7.372;2022-12-18T00:49:08;37.77;;;18.30;;
47429;SDS011;33181;49.246;7.372;2022-12-18T00:51:35;44.03;;;19.63;;
47429;SDS011;33181;49.246;7.372;2022-12-18T00:54:00;43.17;;;19.40;;
47429;SDS011;33181;49.246;7.372;2022-12-18T00:56:26;39.20;;;18.60;;
47429;SDS011;33181;49.246;7.372;2022-12-18T00:58:52;38.87;;;19.03;;
47429;SDS011;33181;49.246;7.372;2022-12-18T01:01:18;41.60;;;20.40;;
47429;SDS011;33181;49.246;7.372;2022-12-18T01:03:44;36.47;;;18.80;;
47429;SDS011;33181;49.246;7.372;2022-12-18T01:06:13;36.33;;;18.70;;
47429;SDS011;33181;49.246;7.372;2022-12-18T01:08:39;42.40;;;19.07;;
47429;SDS011;33181;49.246;7.372;2022-12-18T01:11:18;38.00;;;19.20;;
47429;SDS011;33181;49.246;7.372;2022-12-18T01:13:45;43.20;;;19.50;;
47429;SDS011;33181;49.246;7.372;2022-12-18T01:16:12;39.27;;;18.70;;
47429;SDS011;33181;49.246;7.372;2022-12-18T01:18:39;39.13;;;19.10;;
47429;SDS011;33181;49.246;7.372;2022-12-18T01:21:09;34.63;;;17.93;;
47429;SDS011;33181;49.246;7.372;2022-12-18T01:23:38;37.17;;;17.30;;
47429;SDS011;33181;49.246;7.372;2022-12-18T01:26:05;35.77;;;18.70;;
47429;SDS011;33181;49.246;7.372;2022-12-18T01:28:40;39.47;;;18.67;;
47429;SDS011;33181;49.246;7.372;2022-12-18T01:33:49;41.83;;;18.40;;
47429;SDS011;33181;49.246;7.372;2022-12-18T01:36:16;42.80;;;21.27;;
47429;SDS011;33181;49.246;7.372;2022-12-18T01:38:49;46.93;;;20.60;;
47429;SDS011;33181;49.246;7.372;2022-12-18T01:41:17;43.50;;;19.90;;
47429;SDS011;33181;49.246;7.372;2022-12-18T01:43:51;44.17;;;19.80;;
47429;SDS011;33181;49.246;7.372;2022-12-18T01:46:21;38.30;;;19.10;;
47429;SDS011;33181;49.246;7.372;2022-12-18T01:48:53;39.13;;;18.97;;
47429;SDS011;33181;49.246;7.372;2022-12-18T01:51:26;47.90;;;21.50;;
47429;SDS011;33181;49.246;7.372;2022-12-18T01:53:54;46.07;;;22.30;;
47429;SDS011;33181;49.246;7.372;2022-12-18T01:56:21;40.77;;;19.60;;
47429;SDS011;33181;49.246;7.372;2022-12-18T01:58:50;39.40;;;19.37;;
47429;SDS011;33181;49.246;7.372;2022-12-18T02:01:27;46.50;;;20.40;;
47429;SDS011;33181;49.246;7.372;2022-12-18T02:03:55;41.40;;;18.67;;
47429;SDS011;33181;49.246;7.372;2022-12-18T02:06:41;45.03;;;20.90;;
47429;SDS011;33181;49.246;7.372;2022-12-18T02:09:09;43.50;;;20.17;;
47429;SDS011;33181;49.246;7.372;2022-12-18T02:20:24;42.00;;;21.07;;
47429;SDS011;33181;49.246;7.372;2022-12-18T02:26:15;43.10;;;21.17;;
47429;SDS011;33181;49.246;7.372;2022-12-18T02:28:49;49.00;;;22.37;;
47429;SDS011;33181;49.246;7.372;2022-12-18T02:31:25;43.43;;;20.03;;
47429;SDS011;33181;49.246;7.372;2022-12-18T02:33:56;43.10;;;20.33;;
47429;SDS011;33181;49.246;7.372;2022-12-18T02:36:27;48.20;;;21.17;;
47429;SDS011;33181;49.246;7.372;2022-12-18T02:38:56;47.87;;;21.50;;
47429;SDS011;33181;49.246;7.372;2022-12-18T02:41:24;42.50;;;20.57;;
47429;SDS011;33181;49.246;7.372;2022-12-18T02:44:00;38.90;;;20.00;;
47429;SDS011;33181;49.246;7.372;2022-12-18T02:49:12;41.13;;;20.40;;
47429;SDS011;33181;49.246;7.372;2022-12-18T02:57:49;45.53;;;20.17;;
47429;SDS011;33181;49.246;7.372;2022-12-18T03:00:30;39.80;;;19.67;;
47429;SDS011;33181;49.246;7.372;2022-12-18T03:03:06;39.70;;;19.90;;
47429;SDS011;33181;49.246;7.372;2022-12-18T03:05:43;40.27;;;19.63;;
47429;SDS011;33181;49.246;7.372;2022-12-18T03:08:17;43.77;;;21.20;;
47429;SDS011;33181;49.246;7.372;2022-12-18T03:10:50;45.03;;;20.77;;
47429;SDS011;33181;49.246;7.372;2022-12-18T03:13:38;47.13;;;20.43;;
47429;SDS011;33181;49.246;7.372;2022-12-18T03:16:17;42.50;;;19.60;;
47429;SDS011;33181;49.246;7.372;2022-12-18T03:18:52;43.03;;;19.60;;
47429;SDS011;33181;49.246;7.372;2022-12-18T03:21:26;42.53;;;20.03;;
47429;SDS011;33181;49.246;7.372;2022-12-18T03:23:58;45.80;;;20.80;;
47429;SDS011;33181;49.246;7.372;2022-12-18T03:26:26;47.70;;;20.73;;
47429;SDS011;33181;49.246;7.372;2022-12-18T03:28:56;39.67;;;20.47;;
47429;SDS011;33181;49.246;7.372;2022-12-18T03:31:32;46.93;;;20.80;;
47429;SDS011;33181;49.246;7.372;2022-12-18T03:34:04;41.77;;;19.10;;
47429;SDS011;33181;49.246;7.372;2022-12-18T03:36:44;47.20;;;20.23;;
47429;SDS011;33181;49.246;7.372;2022-12-18T03:39:10;42.77;;;19.90;;
47429;SDS011;33181;49.246;7.372;2022-12-18T03:44:51;48.27;;;20.47;;
47429;SDS011;33181;49.246;7.372;2022-12-18T03:56:04;38.83;;;19.30;;
47429;SDS011;33181;49.246;7.372;2022-12-18T03:58:32;42.57;;;18.20;;
47429;SDS011;33181;49.246;7.372;2022-12-18T04:01:01;41.33;;;19.67;;
47429;SDS011;33181;49.246;7.372;2022-12-18T04:03:32;45.93;;;18.77;;
47429;SDS011;33181;49.246;7.372;2022-12-18T04:05:59;43.63;;;20.30;;
47429;SDS011;33181;49.246;7.372;2022-12-18T04:08:26;46.87;;;19.67;;
47429;SDS011;33181;49.246;7.372;2022-12-18T04:10:53;42.57;;;19.53;;
47429;SDS011;33181;49.246;7.372;2022-12-18T04:13:23;43.23;;;18.03;;
47429;SDS011;33181;49.246;7.372;2022-12-18T04:16:01;42.00;;;19.20;;
47429;SDS011;33181;49.246;7.372;2022-12-18T04:18:27;41.50;;;19.10;;
47429;SDS011;33181;49.246;7.372;2022-12-18T04:20:53;44.70;;;20.00;;
47429;SDS011;33181;49.246;7.372;2022-12-18T04:23:19;41.70;;;18.10;;
47429;SDS011;33181;49.246;7.372;2022-12-18T04:25:45;40.87;;;18.77;;
47429;SDS011;33181;49.246;7.372;2022-12-18T04:28:12;40.43;;;20.30;;
47429;SDS011;33181;49.246;7.372;2022-12-18T04:30:38;41.83;;;18.60;;
47429;SDS011;33181;49.246;7.372;2022-12-18T04:33:07;46.83;;;19.87;;
47429;SDS011;33181;49.246;7.372;2022-12-18T04:35:38;43.37;;;20.40;;
47429;SDS011;33181;49.246;7.372;2022-12-18T04:38:06;44.30;;;19.10;;
47429;SDS011;33181;49.246;7.372;2022-12-18T04:40:36;38.93;;;18.70;;
47429;SDS011;33181;49.246;7.372;2022-12-18T04:43:03;43.10;;;20.07;;
47429;SDS011;33181;49.246;7.372;2022-12-18T04:45:30;44.47;;;20.47;;
47429;SDS011;33181;49.246;7.372;2022-12-18T04:47:58;43.20;;;20.30;;
47429;SDS011;33181;49.246;7.372;2022-12-18T04:50:25;38.53;;;19.53;;
47429;SDS011;33181;49.246;7.372;2022-12-18T04:52:51;44.63;;;19.73;;
47429;SDS011;33181;49.246;7.372;2022-12-18T04:55:18;39.37;;;18.77;;
47429;SDS011;33181;49.246;7.372;2022-12-18T04:57:44;41.53;;;19.03;;
47429;SDS011;33181;49.246;7.372;2022-12-18T05:00:10;44.97;;;20.00;;
47429;SDS011;33181;49.246;7.372;2022-12-18T05:02:36;45.50;;;20.50;;
47429;SDS011;33181;49.246;7.372;2022-12-18T05:05:02;42.23;;;20.30;;
47429;SDS011;33181;49.246;7.372;2022-12-18T05:07:28;40.07;;;18.93;;
47429;SDS011;33181;49.246;7.372;2022-12-18T05:09:54;44.57;;;18.90;;
47429;SDS011;33181;49.246;7.372;2022-12-18T05:12:20;38.90;;;18.20;;
47429;SDS011;33181;49.246;7.372;2022-12-18T05:14:46;42.03;;;18.83;;
47429;SDS011;33181;49.246;7.372;2022-12-18T05:17:12;45.50;;;19.17;;
47429;SDS011;33181;49.246;7.372;2022-12-18T05:19:37;43.70;;;19.73;;
47429;SDS011;33181;49.246;7.372;2022-12-18T05:22:03;45.17;;;20.33;;
47429;SDS011;33181;49.246;7.372;2022-12-18T05:24:29;52.17;;;21.00;;
47429;SDS011;33181;49.246;7.372;2022-12-18T05:26:55;44.73;;;19.97;;
47429;SDS011;33181;49.246;7.372;2022-12-18T05:29:21;43.53;;;19.17;;
47429;SDS011;33181;49.246;7.372;2022-12-18T05:31:47;37.70;;;18.40;;
47429;SDS011;33181;49.246;7.372;2022-12-18T05:34:12;39.47;;;17.57;;
47429;SDS011;33181;49.246;7.372;2022-12-18T05:36:38;38.23;;;18.83;;
47429;SDS011;33181;49.246;7.372;2022-12-18T05:39:04;42.23;;;19.60;;
47429;SDS011;33181;49.246;7.372;2022-12-18T05:41:30;43.13;;;19.70;;
47429;SDS011;33181;49.246;7.372;2022-12-18T05:43:56;43.73;;;18.87;;
47429;SDS011;33181;49.246;7.372;2022-12-18T05:46:21;43.53;;;19.00;;
47429;SDS011;33181;49.246;7.372;2022-12-18T05:48:47;41.37;;;20.03;;
47429;SDS011;33181;49.246;7.372;2022-12-18T05:51:15;41.67;;;18.20;;
47429;SDS011;33181;49.246;7.372;2022-12-18T05:53:44;45.33;;;19.53;;
47429;SDS011;33181;49.246;7.372;2022-12-18T05:56:12;38.47;;;17.93;;
47429;SDS011;33181;49.246;7.372;2022-12-18T05:58:41;43.33;;;17.97;;
47429;SDS011;33181;49.246;7.372;2022-12-18T06:03:37;39.83;;;18.97;;
47429;SDS011;33181;49.246;7.372;2022-12-18T06:06:03;47.53;;;20.53;;
47429;SDS011;33181;49.246;7.372;2022-12-18T06:08:29;45.60;;;19.43;;
47429;SDS011;33181;49.246;7.372;2022-12-18T06:10:55;43.90;;;19.63;;
47429;SDS011;33181;49.246;7.372;2022-12-18T06:13:21;39.77;;;18.93;;
47429;SDS011;33181;49.246;7.372;2022-12-18T06:15:47;43.37;;;19.30;;
47429;SDS011;33181;49.246;7.372;2022-12-18T06:18:13;44.57;;;19.70;;
47429;SDS011;33181;49.246;7.372;2022-12-18T06:20:38;48.43;;;19.53;;
47429;SDS011;33181;49.246;7.372;2022-12-18T06:23:06;47.60;;;20.73;;
47429;SDS011;33181;49.246;7.372;2022-12-18T06:25:32;47.27;;;21.00;;
47429;SDS011;33181;49.246;7.372;2022-12-18T06:28:02;41.27;;;18.83;;
47429;SDS011;33181;49.246;7.372;2022-12-18T06:30:28;47.43;;;19.57;;
47429;SDS011;33181;49.246;7.372;2022-12-18T06:32:54;42.83;;;18.00;;
47429;SDS011;33181;49.246;7.372;2022-12-18T06:35:19;48.40;;;22.23;;
47429;SDS011;33181;49.246;7.372;2022-12-18T06:37:45;46.63;;;20.00;;
47429;SDS011;33181;49.246;7.372;2022-12-18T06:40:11;48.67;;;20.27;;
47429;SDS011;33181;49.246;7.372;2022-12-18T06:42:36;47.20;;;18.80;;
47429;SDS011;33181;49.246;7.372;2022-12-18T06:45:02;43.43;;;19.27;;
47429;SDS011;33181;49.246;7.372;2022-12-18T06:47:28;51.07;;;20.47;;
47429;SDS011;33181;49.246;7.372;2022-12-18T06:49:54;43.50;;;19.20;;
47429;SDS011;33181;49.246;7.372;2022-12-18T06:52:20;48.77;;;19.10;;
47429;SDS011;33181;49.246;7.372;2022-12-18T06:54:45;44.53;;;20.50;;
47429;SDS011;33181;49.246;7.372;2022-12-18T06:57:11;47.53;;;18.50;;
47429;SDS011;33181;49.246;7.372;2022-12-18T06:59:37;40.53;;;18.37;;
47429;SDS011;33181;49.246;7.372;2022-12-18T07:02:02;41.93;;;18.77;;
47429;SDS011;33181;49.246;7.372;2022-12-18T07:04:29;39.70;;;18.83;;
47429;SDS011;33181;49.246;7.372;2022-12-18T07:06:55;43.63;;;19.00;;
47429;SDS011;33181;49.246;7.372;2022-12-18T07:09:22;43.30;;;19.33;;
47429;SDS011;33181;49.246;7.372;2022-12-18T07:11:48;52.60;;;22.53;;
47429;SDS011;33181;49.246;7.372;2022-12-18T07:14:14;46.13;;;21.80;;
47429;SDS011;33181;49.246;7.372;2022-12-18T07:16:39;48.93;;;21.10;;
47429;SDS011;33181;49.246;7.372;2022-12-18T07:19:05;53.00;;;21.10;;
47429;SDS011;33181;49.246;7.372;2022-12-18T07:21:31;49.20;;;21.50;;
47429;SDS011;33181;49.246;7.372;2022-12-18T07:23:57;57.20;;;22.23;;
47429;SDS011;33181;49.246;7.372;2022-12-18T07:26:23;50.27;;;22.13;;
47429;SDS011;33181;49.246;7.372;2022-12-18T07:28:48;49.23;;;21.57;;
47429;SDS011;33181;49.246;7.372;2022-12-18T07:31:16;49.27;;;20.40;;
47429;SDS011;33181;49.246;7.372;2022-12-18T07:33:45;42.90;;;20.30;;
47429;SDS011;33181;49.246;7.372;2022-12-18T07:36:11;44.40;;;21.40;;
47429;SDS011;33181;49.246;7.372;2022-12-18T07:38:38;50.40;;;22.13;;
47429;SDS011;33181;49.246;7.372;2022-12-18T07:41:09;49.83;;;21.80;;
47429;SDS011;33181;49.246;7.372;2022-12-18T07:43:36;49.43;;;20.80;;
47429;SDS011;33181;49.246;7.372;2022-12-18T07:46:03;56.27;;;23.20;;
47429;SDS011;33181;49.246;7.372;2022-12-18T07:48:30;50.23;;;20.77;;
47429;SDS011;33181;49.246;7.372;2022-12-18T07:51:03;44.67;;;21.43;;
47429;SDS011;33181;49.246;7.372;2022-12-18T07:53:31;49.17;;;20.77;;
47429;SDS011;33181;49.246;7.372;2022-12-18T07:55:59;44.27;;;22.27;;
47429;SDS011;33181;49.246;7.372;2022-12-18T07:58:28;59.03;;;23.30;;
47429;SDS011;33181;49.246;7.372;2022-12-18T08:00:54;46.47;;;22.67;;
47429;SDS011;33181;49.246;7.372;2022-12-18T08:03:32;52.37;;;23.10;;
47429;SDS011;33181;49.246;7.372;2022-12-18T08:05:59;50.83;;;20.87;;
47429;SDS011;33181;49.246;7.372;2022-12-18T08:08:30;42.80;;;20.33;;
47429;SDS011;33181;49.246;7.372;2022-12-18T08:10:56;46.83;;;20.60;;
47429;SDS011;33181;49.246;7.372;2022-12-18T08:13:23;48.10;;;21.40;;
47429;SDS011;33181;49.246;7.372;2022-12-18T08:15:56;57.47;;;23.03;;
47429;SDS011;33181;49.246;7.372;2022-12-18T08:18:31;52.23;;;23.43;;
47429;SDS011;33181;49.246;7.372;2022-12-18T08:21:07;50.17;;;23.90;;
47429;SDS011;33181;49.246;7.372;2022-12-18T08:23:36;52.43;;;22.50;;
47429;SDS011;33181;49.246;7.372;2022-12-18T08:26:02;46.13;;;22.33;;
47429;SDS011;33181;49.246;7.372;2022-12-18T08:28:28;54.50;;;22.60;;
47429;SDS011;33181;49.246;7.372;2022-12-18T08:30:53;51.43;;;21.70;;
47429;SDS011;33181;49.246;7.372;2022-12-18T08:33:19;46.90;;;21.83;;
47429;SDS011;33181;49.246;7.372;2022-12-18T08:35:45;42.07;;;19.77;;
47429;SDS011;33181;49.246;7.372;2022-12-18T08:38:11;49.60;;;20.80;;
47429;SDS011;33181;49.246;7.372;2022-12-18T08:40:36;51.10;;;22.30;;
47429;SDS011;33181;49.246;7.372;2022-12-18T08:43:02;47.33;;;21.47;;
47429;SDS011;33181;49.246;7.372;2022-12-18T08:45:47;49.93;;;22.03;;
47429;SDS011;33181;49.246;7.372;2022-12-18T08:48:12;61.03;;;24.00;;
47429;SDS011;33181;49.246;7.372;2022-12-18T08:50:39;59.90;;;27.30;;
47429;SDS011;33181;49.246;7.372;2022-12-18T08:53:05;55.80;;;25.33;;
47429;SDS011;33181;49.246;7.372;2022-12-18T08:55:30;54.80;;;24.40;;
47429;SDS011;33181;49.246;7.372;2022-12-18T08:57:56;58.37;;;24.27;;
47429;SDS011;33181;49.246;7.372;2022-12-18T09:00:22;62.83;;;25.87;;
47429;SDS011;33181;49.246;7.372;2022-12-18T09:02:48;62.57;;;25.50;;
47429;SDS011;33181;49.246;7.372;2022-12-18T09:05:13;57.30;;;24.70;;
47429;SDS011;33181;49.246;7.372;2022-12-18T09:07:39;63.30;;;25.47;;
47429;SDS011;33181;49.246;7.372;2022-12-18T09:10:05;55.27;;;23.30;;
47429;SDS011;33181;49.246;7.372;2022-12-18T09:12:31;55.93;;;25.70;;
47429;SDS011;33181;49.246;7.372;2022-12-18T09:14:57;58.70;;;25.50;;
47429;SDS011;33181;49.246;7.372;2022-12-18T09:17:23;52.17;;;22.07;;
47429;SDS011;33181;49.246;7.372;2022-12-18T09:19:48;55.10;;;24.37;;
47429;SDS011;33181;49.246;7.372;2022-12-18T09:22:14;52.67;;;24.77;;
47429;SDS011;33181;49.246;7.372;2022-12-18T09:24:40;47.53;;;22.97;;
47429;SDS011;33181;49.246;7.372;2022-12-18T09:27:06;53.73;;;24.43;;
47429;SDS011;33181;49.246;7.372;2022-12-18T09:29:32;52.53;;;23.57;;
47429;SDS011;33181;49.246;7.372;2022-12-18T09:31:57;55.90;;;23.53;;
47429;SDS011;33181;49.246;7.372;2022-12-18T09:34:23;55.23;;;23.30;;
47429;SDS011;33181;49.246;7.372;2022-12-18T09:36:49;50.60;;;23.93;;
47429;SDS011;33181;49.246;7.372;2022-12-18T09:39:15;58.13;;;26.20;;
47429;SDS011;33181;49.246;7.372;2022-12-18T09:41:45;58.53;;;25.97;;
47429;SDS011;33181;49.246;7.372;2022-12-18T09:44:29;60.00;;;26.60;;
47429;SDS011;33181;49.246;7.372;2022-12-18T09:49:58;56.13;;;26.03;;
47429;SDS011;33181;49.246;7.372;2022-12-18T09:52:36;49.73;;;24.10;;
47429;SDS011;33181;49.246;7.372;2022-12-18T09:58:26;53.33;;;24.50;;
47429;SDS011;33181;49.246;7.372;2022-12-18T10:01:14;56.43;;;25.80;;
47429;SDS011;33181;49.246;7.372;2022-12-18T10:03:46;52.17;;;24.73;;
47429;SDS011;33181;49.246;7.372;2022-12-18T10:21:23;62.00;;;27.77;;
47429;SDS011;33181;49.246;7.372;2022-12-18T10:27:15;63.63;;;28.83;;
47429;SDS011;33181;49.246;7.372;2022-12-18T10:29:46;57.70;;;26.77;;
47429;SDS011;33181;49.246;7.372;2022-12-18T10:32:16;64.50;;;28.43;;
47429;SDS011;33181;49.246;7.372;2022-12-18T10:34:52;61.27;;;28.30;;
47429;SDS011;33181;49.246;7.372;2022-12-18T10:37:22;65.97;;;28.80;;
47429;SDS011;33181;49.246;7.372;2022-12-18T10:42:41;72.63;;;29.53;;
47429;SDS011;33181;49.246;7.372;2022-12-18T10:45:15;61.40;;;26.53;;
47429;SDS011;33181;49.246;7.372;2022-12-18T10:47:45;65.07;;;29.20;;
47429;SDS011;33181;49.246;7.372;2022-12-18T10:50:18;72.20;;;31.47;;
47429;SDS011;33181;49.246;7.372;2022-12-18T10:52:57;75.77;;;30.30;;
47429;SDS011;33181;49.246;7.372;2022-12-18T10:55:27;63.37;;;27.90;;
47429;SDS011;33181;49.246;7.372;2022-12-18T11:01:08;69.90;;;30.03;;
47429;SDS011;33181;49.246;7.372;2022-12-18T11:04:16;71.47;;;28.27;;
47429;SDS011;33181;49.246;7.372;2022-12-18T11:06:34;69.60;;;29.80;;
47429;SDS011;33181;49.246;7.372;2022-12-18T11:09:34;63.47;;;29.23;;
47429;SDS011;33181;49.246;7.372;2022-12-18T11:12:02;66.23;;;29.03;;
47429;SDS011;33181;49.246;7.372;2022-12-18T11:17:20;63.13;;;31.00;;
47429;SDS011;33181;49.246;7.372;2022-12-18T11:20:00;58.37;;;24.03;;
47429;SDS011;33181;49.246;7.372;2022-12-18T11:22:44;65.80;;;28.80;;
47429;SDS011;33181;49.246;7.372;2022-12-18T11:25:28;67.77;;;30.53;;
47429;SDS011;33181;49.246;7.372;2022-12-18T11:27:57;68.57;;;28.30;;
47429;SDS011;33181;49.246;7.372;2022-12-18T11:30:29;66.60;;;27.90;;
47429;SDS011;33181;49.246;7.372;2022-12-18T11:38:33;70.37;;;28.97;;
47429;SDS011;33181;49.246;7.372;2022-12-18T11:41:07;68.03;;;26.63;;
47429;SDS011;33181;49.246;7.372;2022-12-18T11:44:26;60.13;;;27.50;;
47429;SDS011;33181;49.246;7.372;2022-12-18T11:47:13;68.00;;;29.20;;
47429;SDS011;33181;49.246;7.372;2022-12-18T11:49:54;68.57;;;28.83;;
47429;SDS011;33181;49.246;7.372;2022-12-18T11:52:26;68.33;;;28.90;;
47429;SDS011;33181;49.246;7.372;2022-12-18T11:55:09;70.20;;;29.30;;
47429;SDS011;33181;49.246;7.372;2022-12-18T11:57:51;64.67;;;28.30;;
47429;SDS011;33181;49.246;7.372;2022-12-18T12:00:49;66.40;;;27.80;;
47429;SDS011;33181;49.246;7.372;2022-12-18T12:07:33;63.23;;;27.10;;
47429;SDS011;33181;49.246;7.372;2022-12-18T12:13:12;66.50;;;28.90;;
47429;SDS011;33181;49.246;7.372;2022-12-18T12:19:11;63.50;;;27.10;;
47429;SDS011;33181;49.246;7.372;2022-12-18T12:21:51;61.20;;;28.50;;
47429;SDS011;33181;49.246;7.372;2022-12-18T12:39:01;67.80;;;28.60;;
47429;SDS011;33181;49.246;7.372;2022-12-18T12:41:34;58.70;;;24.93;;
47429;SDS011;33181;49.246;7.372;2022-12-18T12:44:27;61.40;;;26.70;;
47429;SDS011;33181;49.246;7.372;2022-12-18T12:47:00;65.67;;;27.63;;
47429;SDS011;33181;49.246;7.372;2022-12-18T12:49:51;57.23;;;25.70;;
47429;SDS011;33181;49.246;7.372;2022-12-18T12:52:22;63.63;;;28.40;;
47429;SDS011;33181;49.246;7.372;2022-12-18T12:54:53;66.57;;;28.40;;
47429;SDS011;33181;49.246;7.372;2022-12-18T12:57:26;59.77;;;26.87;;
47429;SDS011;33181;49.246;7.372;2022-12-18T13:00:18;57.53;;;25.80;;
47429;SDS011;33181;49.246;7.372;2022-12-18T13:05:55;61.73;;;25.70;;
47429;SDS011;33181;49.246;7.372;2022-12-18T13:08:29;61.93;;;26.20;;
47429;SDS011;33181;49.246;7.372;2022-12-18T13:10:57;63.00;;;28.83;;
47429;SDS011;33181;49.246;7.372;2022-12-18T13:13:53;70.40;;;29.23;;
47429;SDS011;33181;49.246;7.372;2022-12-18T13:16:24;71.53;;;30.53;;
47429;SDS011;33181;49.246;7.372;2022-12-18T13:18:53;59.43;;;27.87;;
47429;SDS011;33181;49.246;7.372;2022-12-18T13:21:25;60.07;;;26.57;;
47429;SDS011;33181;49.246;7.372;2022-12-18T13:24:13;62.23;;;26.97;;
47429;SDS011;33181;49.246;7.372;2022-12-18T13:26:49;62.83;;;28.33;;
47429;SDS011;33181;49.246;7.372;2022-12-18T13:29:40;70.10;;;29.40;;
47429;SDS011;33181;49.246;7.372;2022-12-18T13:32:24;59.90;;;26.83;;
47429;SDS011;33181;49.246;7.372;2022-12-18T13:37:53;64.93;;;28.03;;
47429;SDS011;33181;49.246;7.372;2022-12-18T13:40:45;68.03;;;29.97;;
47429;SDS011;33181;49.246;7.372;2022-12-18T13:45:47;68.23;;;29.63;;
47429;SDS011;33181;49.246;7.372;2022-12-18T13:48:25;70.37;;;29.37;;
47429;SDS011;33181;49.246;7.372;2022-12-18T13:50:55;61.03;;;25.47;;
47429;SDS011;33181;49.246;7.372;2022-12-18T13:53:28;63.10;;;26.17;;
47429;SDS011;33181;49.246;7.372;2022-12-18T13:56:18;61.80;;;26.53;;
47429;SDS011;33181;49.246;7.372;2022-12-18T13:59:05;65.43;;;28.43;;
47429;SDS011;33181;49.246;7.372;2022-12-18T14:01:53;56.10;;;26.23;;
47429;SDS011;33181;49.246;7.372;2022-12-18T14:06:55;67.37;;;28.87;;
47429;SDS011;33181;49.246;7.372;2022-12-18T14:09:27;53.23;;;26.30;;
47429;SDS011;33181;49.246;7.372;2022-12-18T14:11:59;63.63;;;28.00;;
47429;SDS011;33181;49.246;7.372;2022-12-18T14:14:45;64.60;;;28.73;;
47429;SDS011;33181;49.246;7.372;2022-12-18T14:17:14;65.33;;;29.43;;
47429;SDS011;33181;49.246;7.372;2022-12-18T14:19:41;58.60;;;26.90;;
47429;SDS011;33181;49.246;7.372;2022-12-18T14:22:25;64.07;;;27.70;;
47429;SDS011;33181;49.246;7.372;2022-12-18T14:27:52;59.53;;;28.40;;
47429;SDS011;33181;49.246;7.372;2022-12-18T14:30:39;75.03;;;31.87;;
47429;SDS011;33181;49.246;7.372;2022-12-18T14:33:11;62.13;;;28.10;;
47429;SDS011;33181;49.246;7.372;2022-12-18T14:35:40;67.77;;;28.47;;
47429;SDS011;33181;49.246;7.372;2022-12-18T14:41:06;58.33;;;28.30;;
47429;SDS011;33181;49.246;7.372;2022-12-18T14:43:38;69.70;;;29.37;;
47429;SDS011;33181;49.246;7.372;2022-12-18T14:49:01;65.43;;;29.03;;
47429;SDS011;33181;49.246;7.372;2022-12-18T14:52:00;65.60;;;27.80;;
47429;SDS011;33181;49.246;7.372;2022-12-18T14:54:31;66.33;;;28.10;;
47429;SDS011;33181;49.246;7.372;2022-12-18T14:57:00;73.80;;;31.37;;
47429;SDS011;33181;49.246;7.372;2022-12-18T14:59:31;73.10;;;32.63;;
47429;SDS011;33181;49.246;7.372;2022-12-18T15:04:39;64.70;;;28.40;;
47429;SDS011;33181;49.246;7.372;2022-12-18T15:18:09;60.30;;;27.53;;
47429;SDS011;33181;49.246;7.372;2022-12-18T15:20:50;66.90;;;29.50;;
47429;SDS011;33181;49.246;7.372;2022-12-18T15:23:27;66.60;;;31.67;;
47429;SDS011;33181;49.246;7.372;2022-12-18T15:26:12;74.90;;;31.93;;
47429;SDS011;33181;49.246;7.372;2022-12-18T15:28:48;65.10;;;32.00;;
47429;SDS011;33181;49.246;7.372;2022-12-18T15:36:24;59.50;;;29.10;;
47429;SDS011;33181;49.246;7.372;2022-12-18T15:38:55;69.17;;;29.33;;
47429;SDS011;33181;49.246;7.372;2022-12-18T15:41:22;62.67;;;29.67;;
47429;SDS011;33181;49.246;7.372;2022-12-18T15:43:52;62.60;;;29.53;;
47429;SDS011;33181;49.246;7.372;2022-12-18T15:46:19;72.30;;;31.57;;
47429;SDS011;33181;49.246;7.372;2022-12-18T15:48:51;71.27;;;30.63;;
47429;SDS011;33181;49.246;7.372;2022-12-18T15:51:34;63.43;;;29.00;;
47429;SDS011;33181;49.246;7.372;2022-12-18T15:54:02;63.30;;;30.17;;
47429;SDS011;33181;49.246;7.372;2022-12-18T15:56:31;68.93;;;30.67;;
47429;SDS011;33181;49.246;7.372;2022-12-18T15:59:19;70.50;;;30.07;;
47429;SDS011;33181;49.246;7.372;2022-12-18T16:01:46;64.10;;;30.17;;
47429;SDS011;33181;49.246;7.372;2022-12-18T16:04:14;67.40;;;30.37;;
47429;SDS011;33181;49.246;7.372;2022-12-18T16:06:45;65.60;;;29.67;;
47429;SDS011;33181;49.246;7.372;2022-12-18T16:09:11;71.83;;;31.73;;
47429;SDS011;33181;49.246;7.372;2022-12-18T16:11:37;61.80;;;28.53;;
47429;SDS011;33181;49.246;7.372;2022-12-18T16:16:42;70.80;;;33.77;;
47429;SDS011;33181;49.246;7.372;2022-12-18T16:19:10;66.07;;;30.37;;
47429;SDS011;33181;49.246;7.372;2022-12-18T16:21:37;73.13;;;32.93;;
47429;SDS011;33181;49.246;7.372;2022-12-18T16:24:03;64.83;;;32.60;;
47429;SDS011;33181;49.246;7.372;2022-12-18T16:26:31;56.20;;;29.00;;
47429;SDS011;33181;49.246;7.372;2022-12-18T16:28:57;70.60;;;31.87;;
47429;SDS011;33181;49.246;7.372;2022-12-18T16:31:23;63.27;;;29.20;;
47429;SDS011;33181;49.246;7.372;2022-12-18T16:33:48;63.23;;;29.40;;
47429;SDS011;33181;49.246;7.372;2022-12-18T16:36:14;60.70;;;29.73;;
47429;SDS011;33181;49.246;7.372;2022-12-18T16:38:40;71.40;;;30.17;;
47429;SDS011;33181;49.246;7.372;2022-12-18T16:41:14;65.80;;;30.27;;
47429;SDS011;33181;49.246;7.372;2022-12-18T16:43:57;64.83;;;28.73;;
47429;SDS011;33181;49.246;7.372;2022-12-18T16:46:24;68.27;;;30.00;;
47429;SDS011;33181;49.246;7.372;2022-12-18T16:48:50;68.00;;;28.60;;
47429;SDS011;33181;49.246;7.372;2022-12-18T16:51:16;64.63;;;30.43;;
47429;SDS011;33181;49.246;7.372;2022-12-18T16:53:41;68.47;;;31.40;;
47429;SDS011;33181;49.246;7.372;2022-12-18T16:56:07;61.57;;;29.40;;
47429;SDS011;33181;49.246;7.372;2022-12-18T16:58:33;60.90;;;29.27;;
47429;SDS011;33181;49.246;7.372;2022-12-18T17:00:59;66.30;;;30.57;;
47429;SDS011;33181;49.246;7.372;2022-12-18T17:03:25;58.40;;;27.63;;
47429;SDS011;33181;49.246;7.372;2022-12-18T17:05:50;63.80;;;29.20;;